createdAt,value
2023-03-16T00:01:46.756Z,3.80
2023-03-16T00:04:13.326Z,3.63
2023-03-16T00:06:39.852Z,4.30
2023-03-16T00:09:06.366Z,7.50
2023-03-16T00:11:34.249Z,6.20
2023-03-16T00:14:00.742Z,5.30
2023-03-16T00:16:27.274Z,4.63
2023-03-16T00:18:53.771Z,5.00
2023-03-16T00:21:20.294Z,4.70
2023-03-16T00:23:46.793Z,5.03
2023-03-16T00:26:13.332Z,4.53
2023-03-16T00:28:41.212Z,3.70
2023-03-16T00:31:09.490Z,3.70
2023-03-16T00:33:35.991Z,3.27
2023-03-16T00:36:06.016Z,3.40
2023-03-16T00:38:35.251Z,3.50
2023-03-16T00:41:01.888Z,3.57
2023-03-16T00:43:28.387Z,3.57
2023-03-16T00:45:59.675Z,3.47
2023-03-16T00:48:26.192Z,3.40
2023-03-16T00:50:52.696Z,3.17
2023-03-16T00:53:19.213Z,3.17
2023-03-16T00:55:45.775Z,3.10
2023-03-16T00:58:12.300Z,2.83
2023-03-16T01:00:38.804Z,2.87
2023-03-16T01:03:06.700Z,3.03
2023-03-16T01:05:33.272Z,2.67
2023-03-16T01:07:59.846Z,2.93
2023-03-16T01:10:26.594Z,3.20
2023-03-16T01:12:53.291Z,2.73
2023-03-16T01:15:19.928Z,3.27
2023-03-16T01:17:46.417Z,2.57
2023-03-16T01:20:14.404Z,3.30
2023-03-16T01:22:40.907Z,3.00
2023-03-16T01:25:08.030Z,3.20
2023-03-16T01:27:34.504Z,3.17
2023-03-16T01:30:01.071Z,3.07
2023-03-16T01:32:27.589Z,3.03
2023-03-16T01:34:54.090Z,3.03
2023-03-16T01:37:21.984Z,2.70
2023-03-16T01:39:48.876Z,2.90
2023-03-16T01:42:15.528Z,3.33
2023-03-16T01:44:53.331Z,3.57
2023-03-16T01:47:19.930Z,4.20
2023-03-16T01:49:46.602Z,3.97
2023-03-16T01:52:17.760Z,4.07
2023-03-16T01:54:49.304Z,4.40
2023-03-16T01:57:19.322Z,4.73
2023-03-16T01:59:49.613Z,4.60
2023-03-16T02:02:19.897Z,5.07
2023-03-16T02:04:50.615Z,4.60
2023-03-16T02:07:19.167Z,4.73
2023-03-16T02:09:50.176Z,4.63
2023-03-16T02:12:18.098Z,4.30
2023-03-16T02:14:45.577Z,4.47
2023-03-16T02:17:13.332Z,4.17
2023-03-16T02:19:49.835Z,3.77
2023-03-16T02:22:16.777Z,4.53
2023-03-16T02:24:43.283Z,4.57
2023-03-16T02:27:14.172Z,4.40
2023-03-16T02:30:10.371Z,4.17
2023-03-16T02:32:38.276Z,4.10
2023-03-16T02:35:06.973Z,4.57
2023-03-16T02:37:33.536Z,4.40
2023-03-16T02:40:00.758Z,4.27
2023-03-16T02:42:28.867Z,3.80
2023-03-16T02:44:57.532Z,3.30
2023-03-16T02:47:34.390Z,3.20
2023-03-16T02:50:00.969Z,3.30
2023-03-16T02:52:27.506Z,2.80
2023-03-16T02:54:54.008Z,3.13
2023-03-16T02:57:20.579Z,3.10
2023-03-16T02:59:47.095Z,3.00
2023-03-16T03:02:13.985Z,2.90
2023-03-16T03:04:42.369Z,2.87
2023-03-16T03:07:08.937Z,2.57
2023-03-16T03:09:35.477Z,2.80
2023-03-16T03:12:01.992Z,2.80
2023-03-16T03:14:28.577Z,2.67
2023-03-16T03:16:55.375Z,2.97
2023-03-16T03:19:22.042Z,2.70
2023-03-16T03:21:50.524Z,2.73
2023-03-16T03:24:17.108Z,3.30
2023-03-16T03:26:43.665Z,3.00
2023-03-16T03:29:10.176Z,3.40
2023-03-16T03:31:36.719Z,3.30
2023-03-16T03:34:03.266Z,3.10
2023-03-16T03:36:29.827Z,3.30
2023-03-16T03:38:57.696Z,2.97
2023-03-16T03:41:24.223Z,3.00
2023-03-16T03:43:50.709Z,2.87
2023-03-16T03:46:17.341Z,2.93
2023-03-16T03:48:43.877Z,2.53
2023-03-16T03:51:10.420Z,2.83
2023-03-16T03:53:36.924Z,2.50
2023-03-16T03:56:05.307Z,2.80
2023-03-16T03:58:31.804Z,3.10
2023-03-16T04:00:58.363Z,3.40
2023-03-16T04:03:24.943Z,3.70
2023-03-16T04:05:51.523Z,3.50
2023-03-16T04:08:18.033Z,3.60
2023-03-16T04:10:44.544Z,3.73
2023-03-16T04:13:12.402Z,3.20
2023-03-16T04:15:41.290Z,3.70
2023-03-16T04:18:07.781Z,3.17
2023-03-16T04:20:34.316Z,3.23
2023-03-16T04:23:00.834Z,3.40
2023-03-16T04:25:27.547Z,3.17
2023-03-16T04:27:54.245Z,3.47
2023-03-16T04:30:22.834Z,3.57
2023-03-16T04:32:49.609Z,3.47
2023-03-16T04:35:16.290Z,3.57
2023-03-16T04:37:42.843Z,4.07
2023-03-16T04:40:11.080Z,4.03
2023-03-16T04:42:37.755Z,3.33
2023-03-16T04:45:04.832Z,4.47
2023-03-16T04:47:32.677Z,4.07
2023-03-16T04:49:59.216Z,3.50
2023-03-16T04:52:25.757Z,4.27
2023-03-16T04:54:52.254Z,4.17
2023-03-16T04:57:18.759Z,4.13
2023-03-16T04:59:45.294Z,4.00
2023-03-16T05:02:12.043Z,4.60
2023-03-16T05:04:40.456Z,3.67
2023-03-16T05:07:06.997Z,3.97
2023-03-16T05:09:33.496Z,3.80
2023-03-16T05:11:59.990Z,4.57
2023-03-16T05:14:26.514Z,4.17
2023-03-16T05:16:53.030Z,4.53
2023-03-16T05:19:19.521Z,4.20
2023-03-16T05:21:47.366Z,4.83
2023-03-16T05:24:13.889Z,4.30
2023-03-16T05:26:40.401Z,4.03
2023-03-16T05:29:06.932Z,4.57
2023-03-16T05:31:33.504Z,4.17
2023-03-16T05:34:00.167Z,4.53
2023-03-16T05:36:26.690Z,4.90
2023-03-16T05:38:54.617Z,4.20
2023-03-16T05:41:21.304Z,4.57
2023-03-16T05:43:47.840Z,4.00
2023-03-16T05:46:14.471Z,4.97
2023-03-16T05:48:41.033Z,4.40
2023-03-16T05:51:07.579Z,4.10
2023-03-16T05:53:34.436Z,4.33
2023-03-16T05:56:02.340Z,5.20
2023-03-16T05:58:28.854Z,4.73
2023-03-16T06:00:55.347Z,4.60
2023-03-16T06:03:22.328Z,4.60
2023-03-16T06:05:48.863Z,4.80
2023-03-16T06:08:15.425Z,5.30
2023-03-16T06:10:42.215Z,4.63
2023-03-16T06:13:10.095Z,4.77
2023-03-16T06:15:36.640Z,3.70
2023-03-16T06:18:03.192Z,4.13
2023-03-16T06:20:30.083Z,4.67
2023-03-16T06:22:56.861Z,4.97
2023-03-16T06:25:23.516Z,5.60
2023-03-16T06:27:50.113Z,4.53
2023-03-16T06:30:18.634Z,4.37
2023-03-16T06:32:45.190Z,3.83
2023-03-16T06:35:12.753Z,3.63
2023-03-16T06:37:39.260Z,3.53
2023-03-16T06:40:07.342Z,3.50
2023-03-16T06:42:33.923Z,3.50
2023-03-16T06:45:00.556Z,3.40
2023-03-16T06:47:28.408Z,3.70
2023-03-16T06:49:54.940Z,4.33
2023-03-16T06:52:21.443Z,4.30
2023-03-16T06:54:47.976Z,4.00
2023-03-16T06:57:14.702Z,3.73
2023-03-16T06:59:41.245Z,3.83
2023-03-16T07:02:10.198Z,4.10
2023-03-16T07:04:38.095Z,4.13
2023-03-16T07:07:04.653Z,3.70
2023-03-16T07:09:31.161Z,4.50
2023-03-16T07:11:57.770Z,5.07
2023-03-16T07:14:24.255Z,5.30
2023-03-16T07:16:50.819Z,5.20
2023-03-16T07:19:17.334Z,5.13
2023-03-16T07:21:45.292Z,4.60
2023-03-16T07:24:12.265Z,4.90
2023-03-16T07:26:38.783Z,4.70
2023-03-16T07:29:05.303Z,4.47
2023-03-16T07:31:32.579Z,4.17
2023-03-16T07:33:59.130Z,3.97
2023-03-16T07:36:25.816Z,4.43
2023-03-16T07:38:53.694Z,4.07
2023-03-16T07:41:20.387Z,3.60
2023-03-16T07:43:47.047Z,4.20
2023-03-16T07:46:13.867Z,4.50
2023-03-16T07:48:41.202Z,3.70
2023-03-16T07:51:07.769Z,3.40
2023-03-16T07:53:34.341Z,3.83
2023-03-16T07:56:02.265Z,4.23
2023-03-16T07:58:28.776Z,4.80
2023-03-16T08:00:56.555Z,4.50
2023-03-16T08:03:23.158Z,6.07
2023-03-16T08:05:49.662Z,4.37
2023-03-16T08:08:16.189Z,3.90
2023-03-16T08:10:42.891Z,5.10
2023-03-16T08:13:10.835Z,4.90
2023-03-16T08:15:37.410Z,5.10
2023-03-16T08:18:03.999Z,4.83
2023-03-16T08:20:30.895Z,4.77
2023-03-16T08:22:57.680Z,4.70
2023-03-16T08:25:24.592Z,4.60
2023-03-16T08:27:51.117Z,6.27
2023-03-16T08:30:19.384Z,5.33
2023-03-16T08:32:45.948Z,4.97
2023-03-16T08:35:14.472Z,5.30
2023-03-16T08:37:41.542Z,5.33
2023-03-16T08:40:09.291Z,4.67
2023-03-16T08:42:35.877Z,4.13
2023-03-16T08:45:02.438Z,4.60
2023-03-16T08:47:30.285Z,4.83
2023-03-16T08:49:56.788Z,5.53
2023-03-16T08:52:23.312Z,5.13
2023-03-16T08:55:01.834Z,4.27
2023-03-16T08:57:29.685Z,4.67
2023-03-16T08:59:56.229Z,4.40
2023-03-16T09:02:22.778Z,5.00
2023-03-16T09:04:50.677Z,4.20
2023-03-16T09:07:17.200Z,3.87
2023-03-16T09:09:43.897Z,4.50
2023-03-16T09:12:11.186Z,4.10
2023-03-16T09:14:37.998Z,3.60
2023-03-16T09:17:04.702Z,3.50
2023-03-16T09:19:47.880Z,3.83
2023-03-16T09:22:18.257Z,4.13
2023-03-16T09:24:44.755Z,3.57
2023-03-16T09:27:11.301Z,3.60
2023-03-16T09:29:37.822Z,3.27
2023-03-16T09:32:04.777Z,3.57
2023-03-16T09:34:31.554Z,3.50
2023-03-16T09:36:59.882Z,3.40
2023-03-16T09:39:27.823Z,3.70
2023-03-16T09:42:01.821Z,3.20
2023-03-16T09:44:38.373Z,3.20
2023-03-16T09:47:06.275Z,3.43
2023-03-16T09:49:37.192Z,2.90
2023-03-16T09:52:16.174Z,3.67
2023-03-16T09:55:05.629Z,3.53
2023-03-16T09:58:09.833Z,3.17
2023-03-16T10:00:56.964Z,3.20
2023-03-16T10:03:53.381Z,3.50
2023-03-16T10:06:20.105Z,3.77
2023-03-16T10:08:55.833Z,3.20
2023-03-16T10:11:31.728Z,3.70
2023-03-16T10:14:07.537Z,4.13
2023-03-16T10:16:39.769Z,5.00
2023-03-16T10:19:13.067Z,5.40
2023-03-16T10:21:41.490Z,4.37
2023-03-16T10:24:16.250Z,3.60
2023-03-16T10:26:55.803Z,4.20
2023-03-16T10:29:22.445Z,3.87
2023-03-16T10:31:49.060Z,3.47
2023-03-16T10:34:15.864Z,3.27
2023-03-16T10:36:44.660Z,3.60
2023-03-16T10:39:13.882Z,3.53
2023-03-16T10:41:43.136Z,3.73
2023-03-16T10:44:13.264Z,3.30
2023-03-16T10:46:42.144Z,4.90
2023-03-16T10:49:21.928Z,4.10
2023-03-16T10:51:48.541Z,5.73
2023-03-16T10:54:18.606Z,4.97
2023-03-16T10:56:45.523Z,5.73
2023-03-16T10:59:27.982Z,5.73
2023-03-16T11:01:56.899Z,4.97
2023-03-16T11:04:23.786Z,5.87
2023-03-16T11:06:53.921Z,5.40
2023-03-16T11:09:24.158Z,5.33
2023-03-16T11:11:51.565Z,4.63
2023-03-16T11:14:22.880Z,4.70
2023-03-16T11:16:53.463Z,5.60
2023-03-16T11:19:24.584Z,5.07
2023-03-16T11:21:56.045Z,4.70
2023-03-16T11:24:26.091Z,3.53
2023-03-16T11:26:55.228Z,3.80
2023-03-16T11:29:28.612Z,4.30
2023-03-16T11:32:00.208Z,3.63
2023-03-16T11:34:29.035Z,3.93
2023-03-16T11:36:57.609Z,4.87
2023-03-16T11:39:31.720Z,3.77
2023-03-16T11:42:11.912Z,4.20
2023-03-16T11:44:44.634Z,4.33
2023-03-16T11:47:38.324Z,3.23
2023-03-16T11:50:11.609Z,3.43
2023-03-16T11:52:49.142Z,3.30
2023-03-16T11:55:23.756Z,4.03
2023-03-16T11:58:00.886Z,3.63
2023-03-16T12:00:35.530Z,3.60
2023-03-16T12:03:23.404Z,3.70
2023-03-16T12:05:59.851Z,3.60
2023-03-16T12:09:03.026Z,3.43
2023-03-16T12:11:34.976Z,3.40
2023-03-16T12:14:13.289Z,3.37
2023-03-16T12:16:49.804Z,3.30
2023-03-16T12:19:21.751Z,3.30
2023-03-16T12:21:59.387Z,3.17
2023-03-16T12:24:31.306Z,3.90
2023-03-16T12:26:58.879Z,3.20
2023-03-16T12:29:33.142Z,2.80
2023-03-16T12:32:09.723Z,3.30
2023-03-16T12:34:43.679Z,3.30
2023-03-16T12:37:19.132Z,2.90
2023-03-16T12:40:03.374Z,2.70
2023-03-16T12:42:40.958Z,3.00
2023-03-16T12:45:15.266Z,3.73
2023-03-16T12:47:51.870Z,3.37
2023-03-16T12:50:19.811Z,3.10
2023-03-16T12:52:48.849Z,2.63
2023-03-16T12:55:17.834Z,2.77
2023-03-16T12:57:46.267Z,2.63
2023-03-16T13:00:14.419Z,2.50
2023-03-16T13:02:45.553Z,2.93
2023-03-16T13:05:14.891Z,2.80
2023-03-16T13:07:47.754Z,3.17
2023-03-16T13:10:15.179Z,3.23
2023-03-16T13:12:42.336Z,2.37
2023-03-16T13:15:26.273Z,3.00
2023-03-16T13:18:06.802Z,2.73
2023-03-16T13:20:35.003Z,2.60
2023-03-16T13:23:21.193Z,2.87
2023-03-16T13:26:01.201Z,3.30
2023-03-16T13:28:30.703Z,3.83
2023-03-16T13:30:57.468Z,2.87
2023-03-16T13:33:27.768Z,2.70
2023-03-16T13:35:56.625Z,2.37
2023-03-16T13:38:24.943Z,2.40
2023-03-16T13:40:53.825Z,2.60
2023-03-16T13:43:23.323Z,2.40
2023-03-16T13:45:50.139Z,2.57
2023-03-16T13:48:17.996Z,2.50
2023-03-16T13:50:50.820Z,2.53
2023-03-16T13:53:22.478Z,2.30
2023-03-16T13:55:49.309Z,2.50
2023-03-16T13:58:22.164Z,2.40
2023-03-16T14:00:48.747Z,2.50
2023-03-16T14:03:17.257Z,2.30
2023-03-16T14:05:45.293Z,2.47
2023-03-16T14:08:17.525Z,2.40
2023-03-16T14:10:44.763Z,2.40
2023-03-16T14:13:24.827Z,2.27
2023-03-16T14:15:52.887Z,2.00
2023-03-16T14:18:22.551Z,1.67
2023-03-16T14:20:51.671Z,3.10
2023-03-16T14:23:22.149Z,2.57
2023-03-16T14:25:49.545Z,2.67
2023-03-16T14:28:19.072Z,2.00
2023-03-16T14:30:53.521Z,2.40
2023-03-16T14:33:27.123Z,2.23
2023-03-16T14:35:55.636Z,2.00
2023-03-16T14:38:29.501Z,2.50
2023-03-16T14:40:58.247Z,2.10
2023-03-16T14:43:29.338Z,2.53
2023-03-16T14:45:56.065Z,2.20
2023-03-16T14:48:23.028Z,2.00
2023-03-16T14:50:53.452Z,2.00
2023-03-16T14:53:20.248Z,2.30
2023-03-16T14:55:48.213Z,2.20
2023-03-16T14:58:14.763Z,1.90
2023-03-16T15:00:52.758Z,2.20
2023-03-16T15:03:22.238Z,1.90
2023-03-16T15:05:51.220Z,1.80
2023-03-16T15:08:21.457Z,1.97
2023-03-16T15:10:50.125Z,2.07
2023-03-16T15:13:19.883Z,2.03
2023-03-16T15:15:46.447Z,1.90
2023-03-16T15:18:13.032Z,2.20
2023-03-16T15:20:42.388Z,2.30
2023-03-16T15:23:13.188Z,1.73
2023-03-16T15:25:41.334Z,2.27
2023-03-16T15:28:14.697Z,1.80
2023-03-16T15:30:42.070Z,2.20
2023-03-16T15:33:08.928Z,1.87
2023-03-16T15:35:35.553Z,1.97
2023-03-16T15:38:05.699Z,1.97
2023-03-16T15:40:32.291Z,2.10
2023-03-16T15:42:58.945Z,1.60
2023-03-16T15:45:26.832Z,1.80
2023-03-16T15:47:53.670Z,1.70
2023-03-16T15:50:22.148Z,2.00
2023-03-16T15:52:52.123Z,1.63
2023-03-16T15:55:22.161Z,1.87
2023-03-16T15:57:50.176Z,1.60
2023-03-16T16:00:28.822Z,2.10
2023-03-16T16:02:57.375Z,1.63
2023-03-16T16:05:25.349Z,1.40
2023-03-16T16:07:52.250Z,1.60
2023-03-16T16:10:18.969Z,1.73
2023-03-16T16:12:46.795Z,1.63
2023-03-16T16:15:19.068Z,1.60
2023-03-16T16:18:07.479Z,1.60
2023-03-16T16:20:34.017Z,1.53
2023-03-16T16:23:00.635Z,1.77
2023-03-16T16:25:32.121Z,1.80
2023-03-16T16:27:58.765Z,1.30
2023-03-16T16:30:27.386Z,1.70
2023-03-16T16:32:57.613Z,1.60
2023-03-16T16:35:28.094Z,1.40
2023-03-16T16:37:55.072Z,2.17
2023-03-16T16:40:23.420Z,1.90
2023-03-16T16:42:52.255Z,1.40
2023-03-16T16:45:20.854Z,1.40
2023-03-16T16:47:49.718Z,1.63
2023-03-16T16:50:21.690Z,1.47
2023-03-16T16:52:49.546Z,1.97
2023-03-16T16:55:16.315Z,1.20
2023-03-16T16:57:43.632Z,2.10
2023-03-16T17:00:19.851Z,1.70
2023-03-16T17:02:48.322Z,1.87
2023-03-16T17:05:19.340Z,2.30
2023-03-16T17:07:45.929Z,1.93
2023-03-16T17:10:17.342Z,1.50
2023-03-16T17:12:44.701Z,1.93
2023-03-16T17:15:22.152Z,1.77
2023-03-16T17:17:49.200Z,2.27
2023-03-16T17:20:19.184Z,2.20
2023-03-16T17:22:47.128Z,1.60
2023-03-16T17:25:14.460Z,1.57
2023-03-16T17:27:42.528Z,1.63
2023-03-16T17:30:20.767Z,1.60
2023-03-16T17:32:47.614Z,2.10
2023-03-16T17:35:15.180Z,1.80
2023-03-16T17:37:43.082Z,2.13
2023-03-16T17:40:16.472Z,1.57
2023-03-16T17:42:43.276Z,1.77
2023-03-16T17:45:16.358Z,1.73
2023-03-16T17:47:42.886Z,1.83
2023-03-16T17:50:16.110Z,1.73
2023-03-16T17:52:44.235Z,1.80
2023-03-16T17:55:10.881Z,1.60
2023-03-16T17:57:37.393Z,2.00
2023-03-16T18:00:18.403Z,1.87
2023-03-16T18:02:49.505Z,4.67
2023-03-16T18:05:18.601Z,2.77
2023-03-16T18:07:46.699Z,2.43
2023-03-16T18:10:15.326Z,2.40
2023-03-16T18:12:42.097Z,2.60
2023-03-16T18:15:15.089Z,2.23
2023-03-16T18:17:42.224Z,2.17
2023-03-16T18:20:20.680Z,2.10
2023-03-16T18:22:48.691Z,2.13
2023-03-16T18:25:27.620Z,2.20
2023-03-16T18:27:54.208Z,1.83
2023-03-16T18:30:20.779Z,2.40
2023-03-16T18:32:47.402Z,1.70
2023-03-16T18:35:14.802Z,2.00
2023-03-16T18:37:41.474Z,2.00
2023-03-16T18:40:13.212Z,1.73
2023-03-16T18:42:39.789Z,1.70
2023-03-16T18:45:09.833Z,1.90
2023-03-16T18:47:37.105Z,1.80
2023-03-16T18:50:04.177Z,2.10
2023-03-16T18:52:33.192Z,2.43
2023-03-16T18:54:59.721Z,2.40
2023-03-16T18:57:28.398Z,2.30
2023-03-16T18:59:55.067Z,2.43
2023-03-16T19:02:28.415Z,2.40
2023-03-16T19:04:56.552Z,2.60
2023-03-16T19:07:28.575Z,2.60
2023-03-16T19:09:55.141Z,2.43
2023-03-16T19:12:22.424Z,2.90
2023-03-16T19:14:50.374Z,2.10
2023-03-16T19:17:16.917Z,2.00
2023-03-16T19:19:43.449Z,2.00
2023-03-16T19:22:16.498Z,2.03
2023-03-16T19:24:47.073Z,2.03
2023-03-16T19:27:20.216Z,2.13
2023-03-16T19:29:47.004Z,2.17
2023-03-16T19:32:17.352Z,2.27
2023-03-16T19:34:44.195Z,2.37
2023-03-16T19:37:12.093Z,3.23
2023-03-16T19:39:38.640Z,3.10
2023-03-16T19:42:05.408Z,3.60
2023-03-16T19:44:32.044Z,3.50
2023-03-16T19:46:58.616Z,2.50
2023-03-16T19:49:27.692Z,2.80
2023-03-16T19:51:55.225Z,3.00
2023-03-16T19:54:23.688Z,4.00
2023-03-16T19:56:51.107Z,5.33
2023-03-16T19:59:17.862Z,4.30
2023-03-16T20:01:44.880Z,4.17
2023-03-16T20:04:15.077Z,3.50
2023-03-16T20:06:43.085Z,3.47
2023-03-16T20:09:09.937Z,3.13
2023-03-16T20:11:36.516Z,2.90
2023-03-16T20:14:03.169Z,2.57
2023-03-16T20:16:31.570Z,2.63
2023-03-16T20:19:00.558Z,3.57
2023-03-16T20:21:27.646Z,2.83
2023-03-16T20:23:56.054Z,3.23
2023-03-16T20:26:24.523Z,3.00
2023-03-16T20:28:51.782Z,3.67
2023-03-16T20:31:21.301Z,3.13
2023-03-16T20:33:48.926Z,3.00
2023-03-16T20:36:15.914Z,2.77
2023-03-16T20:38:42.526Z,2.37
2023-03-16T20:41:15.757Z,2.40
2023-03-16T20:43:42.744Z,2.70
2023-03-16T20:46:16.188Z,2.60
2023-03-16T20:48:42.856Z,2.63
2023-03-16T20:51:12.932Z,2.57
2023-03-16T20:53:39.540Z,2.90
2023-03-16T20:56:13.586Z,2.90
2023-03-16T20:58:40.134Z,2.70
2023-03-16T21:01:10.950Z,3.13
2023-03-16T21:03:37.463Z,3.13
2023-03-16T21:06:13.738Z,2.57
2023-03-16T21:08:40.284Z,2.73
2023-03-16T21:11:22.406Z,3.00
2023-03-16T21:13:49.112Z,2.53
2023-03-16T21:16:15.774Z,2.77
2023-03-16T21:18:42.351Z,2.27
2023-03-16T21:21:12.515Z,2.83
2023-03-16T21:23:39.023Z,2.47
2023-03-16T21:26:05.595Z,2.67
2023-03-16T21:28:35.443Z,2.60
2023-03-16T21:31:02.016Z,2.40
2023-03-16T21:33:30.402Z,2.57
2023-03-16T21:35:57.598Z,2.77
2023-03-16T21:38:28.400Z,3.30
2023-03-16T21:40:55.695Z,3.73
2023-03-16T21:43:22.719Z,2.73
2023-03-16T21:45:51.040Z,3.23
2023-03-16T21:48:20.355Z,3.00
2023-03-16T21:50:47.315Z,2.80
2023-03-16T21:53:22.321Z,3.03
2023-03-16T21:55:49.636Z,2.70
2023-03-16T21:58:16.388Z,3.23
2023-03-16T22:00:43.078Z,3.20
2023-03-16T22:03:22.821Z,2.43
2023-03-16T22:05:49.407Z,4.20
2023-03-16T22:08:17.707Z,2.77
2023-03-16T22:10:44.870Z,3.13
2023-03-16T22:13:11.380Z,3.00
2023-03-16T22:15:38.205Z,2.43
2023-03-16T22:18:06.958Z,2.57
2023-03-16T22:20:35.679Z,3.00
2023-03-16T22:23:02.538Z,2.67
2023-03-16T22:25:29.259Z,2.73
2023-03-16T22:27:55.935Z,3.00
2023-03-16T22:30:24.433Z,2.57
2023-03-16T22:32:53.063Z,2.60
2023-03-16T22:35:32.507Z,2.60
2023-03-16T22:38:02.650Z,2.47
2023-03-16T22:40:31.514Z,2.97
2023-03-16T22:43:01.539Z,2.60
2023-03-16T22:45:30.683Z,2.33
2023-03-16T22:47:59.241Z,3.00
2023-03-16T22:50:27.657Z,2.57
2023-03-16T22:52:57.743Z,3.27
2023-03-16T22:55:29.624Z,2.80
2023-03-16T22:58:02.667Z,3.33
2023-03-16T23:00:29.479Z,2.83
2023-03-16T23:02:56.187Z,2.50
2023-03-16T23:05:24.692Z,3.10
2023-03-16T23:07:51.757Z,2.63
2023-03-16T23:10:19.448Z,2.50
2023-03-16T23:12:47.459Z,2.60
2023-03-16T23:15:17.343Z,3.00
2023-03-16T23:17:44.095Z,2.80
2023-03-16T23:20:20.852Z,2.67
2023-03-16T23:22:47.581Z,3.40
2023-03-16T23:25:14.581Z,2.93
2023-03-16T23:27:41.514Z,2.57
2023-03-16T23:30:15.425Z,3.47
2023-03-16T23:32:42.354Z,2.50
2023-03-16T23:35:14.178Z,2.60
2023-03-16T23:37:40.686Z,2.50
2023-03-16T23:40:07.792Z,2.90
2023-03-16T23:42:34.424Z,2.67
2023-03-16T23:45:08.008Z,2.80
2023-03-16T23:47:36.206Z,2.77
2023-03-16T23:50:02.959Z,2.40
2023-03-16T23:52:29.499Z,2.97
2023-03-16T23:54:57.454Z,2.37
2023-03-16T23:57:24.044Z,2.60
2023-03-16T23:59:50.616Z,2.40
